sensor_id;sensor_type;location;lat;lon;timestamp;P1;durP1;ratioP1;P2;durP2;ratioP2
36213;SDS011;37652;50.400;30.628;2022-12-05T00:00:39;8.93;;;4.20;;
36213;SDS011;37652;50.400;30.628;2022-12-05T00:02:39;13.60;;;4.85;;
36213;SDS011;37652;50.400;30.628;2022-12-05T00:04:40;9.68;;;5.70;;
36213;SDS011;37652;50.400;30.628;2022-12-05T00:06:41;17.35;;;4.43;;
36213;SDS011;37652;50.400;30.628;2022-12-05T00:08:42;6.47;;;4.28;;
36213;SDS011;37652;50.400;30.628;2022-12-05T00:10:43;10.38;;;3.92;;
36213;SDS011;37652;50.400;30.628;2022-12-05T00:12:44;9.18;;;4.05;;
36213;SDS011;37652;50.400;30.628;2022-12-05T00:14:44;8.77;;;4.90;;
36213;SDS011;37652;50.400;30.628;2022-12-05T00:16:45;8.60;;;5.25;;
36213;SDS011;37652;50.400;30.628;2022-12-05T00:18:46;12.90;;;4.55;;
36213;SDS011;37652;50.400;30.628;2022-12-05T00:20:47;7.97;;;4.82;;
36213;SDS011;37652;50.400;30.628;2022-12-05T00:24:49;11.83;;;5.17;;
36213;SDS011;37652;50.400;30.628;2022-12-05T00:26:49;10.35;;;4.50;;
36213;SDS011;37652;50.400;30.628;2022-12-05T00:28:51;13.90;;;5.80;;
36213;SDS011;37652;50.400;30.628;2022-12-05T00:32:53;11.37;;;4.90;;
36213;SDS011;37652;50.400;30.628;2022-12-05T00:34:53;14.75;;;5.13;;
36213;SDS011;37652;50.400;30.628;2022-12-05T00:36:54;9.27;;;5.22;;
36213;SDS011;37652;50.400;30.628;2022-12-05T00:38:56;9.05;;;5.13;;
36213;SDS011;37652;50.400;30.628;2022-12-05T00:41:05;9.67;;;5.93;;
36213;SDS011;37652;50.400;30.628;2022-12-05T00:43:11;9.07;;;5.33;;
36213;SDS011;37652;50.400;30.628;2022-12-05T00:45:11;10.48;;;5.65;;
36213;SDS011;37652;50.400;30.628;2022-12-05T00:47:12;12.60;;;6.72;;
36213;SDS011;37652;50.400;30.628;2022-12-05T00:49:13;11.23;;;5.25;;
36213;SDS011;37652;50.400;30.628;2022-12-05T00:51:21;10.63;;;5.30;;
36213;SDS011;37652;50.400;30.628;2022-12-05T00:53:27;9.00;;;5.30;;
36213;SDS011;37652;50.400;30.628;2022-12-05T00:55:28;15.93;;;7.55;;
36213;SDS011;37652;50.400;30.628;2022-12-05T00:57:28;11.57;;;5.90;;
36213;SDS011;37652;50.400;30.628;2022-12-05T00:59:29;12.30;;;4.55;;
36213;SDS011;37652;50.400;30.628;2022-12-05T01:01:35;10.98;;;5.38;;
36213;SDS011;37652;50.400;30.628;2022-12-05T01:03:37;14.73;;;6.40;;
36213;SDS011;37652;50.400;30.628;2022-12-05T01:05:38;8.70;;;5.00;;
36213;SDS011;37652;50.400;30.628;2022-12-05T01:07:39;7.13;;;5.28;;
36213;SDS011;37652;50.400;30.628;2022-12-05T01:09:40;11.63;;;6.28;;
36213;SDS011;37652;50.400;30.628;2022-12-05T01:11:40;14.18;;;5.93;;
36213;SDS011;37652;50.400;30.628;2022-12-05T01:13:42;10.13;;;4.85;;
36213;SDS011;37652;50.400;30.628;2022-12-05T01:17:43;11.40;;;7.53;;
36213;SDS011;37652;50.400;30.628;2022-12-05T01:19:44;9.85;;;6.28;;
36213;SDS011;37652;50.400;30.628;2022-12-05T01:21:45;8.55;;;5.63;;
36213;SDS011;37652;50.400;30.628;2022-12-05T01:23:46;12.80;;;7.83;;
36213;SDS011;37652;50.400;30.628;2022-12-05T01:25:48;17.02;;;7.05;;
36213;SDS011;37652;50.400;30.628;2022-12-05T01:27:49;9.17;;;6.57;;
36213;SDS011;37652;50.400;30.628;2022-12-05T01:29:50;9.43;;;6.18;;
36213;SDS011;37652;50.400;30.628;2022-12-05T01:31:51;12.13;;;5.10;;
36213;SDS011;37652;50.400;30.628;2022-12-05T01:33:53;14.87;;;6.47;;
36213;SDS011;37652;50.400;30.628;2022-12-05T01:35:55;10.87;;;6.60;;
36213;SDS011;37652;50.400;30.628;2022-12-05T01:37:55;11.85;;;5.90;;
36213;SDS011;37652;50.400;30.628;2022-12-05T01:39:56;11.60;;;7.78;;
36213;SDS011;37652;50.400;30.628;2022-12-05T01:41:57;12.90;;;8.98;;
36213;SDS011;37652;50.400;30.628;2022-12-05T01:44:56;11.95;;;7.60;;
36213;SDS011;37652;50.400;30.628;2022-12-05T01:46:28;15.00;;;7.67;;
36213;SDS011;37652;50.400;30.628;2022-12-05T01:48:32;11.83;;;7.37;;
36213;SDS011;37652;50.400;30.628;2022-12-05T01:50:34;10.87;;;7.27;;
36213;SDS011;37652;50.400;30.628;2022-12-05T01:52:36;14.10;;;8.43;;
36213;SDS011;37652;50.400;30.628;2022-12-05T01:54:38;14.53;;;7.73;;
36213;SDS011;37652;50.400;30.628;2022-12-05T01:56:39;16.67;;;8.60;;
36213;SDS011;37652;50.400;30.628;2022-12-05T01:58:41;9.60;;;7.33;;
36213;SDS011;37652;50.400;30.628;2022-12-05T02:00:44;11.57;;;7.43;;
36213;SDS011;37652;50.400;30.628;2022-12-05T02:02:48;14.23;;;8.40;;
36213;SDS011;37652;50.400;30.628;2022-12-05T02:05:11;13.17;;;7.93;;
36213;SDS011;37652;50.400;30.628;2022-12-05T02:07:32;12.50;;;7.50;;
36213;SDS011;37652;50.400;30.628;2022-12-05T02:09:36;15.07;;;8.13;;
36213;SDS011;37652;50.400;30.628;2022-12-05T02:11:41;13.02;;;8.50;;
36213;SDS011;37652;50.400;30.628;2022-12-05T02:16:25;11.43;;;7.73;;
36213;SDS011;37652;50.400;30.628;2022-12-05T02:23:26;12.33;;;7.43;;
36213;SDS011;37652;50.400;30.628;2022-12-05T02:30:33;16.10;;;8.47;;
36213;SDS011;37652;50.400;30.628;2022-12-05T02:35:25;12.63;;;7.83;;
36213;SDS011;37652;50.400;30.628;2022-12-05T02:41:39;12.00;;;8.03;;
36213;SDS011;37652;50.400;30.628;2022-12-05T02:46:16;11.20;;;7.20;;
36213;SDS011;37652;50.400;30.628;2022-12-05T02:48:21;10.10;;;5.53;;
36213;SDS011;37652;50.400;30.628;2022-12-05T02:50:27;17.07;;;7.07;;
36213;SDS011;37652;50.400;30.628;2022-12-05T02:52:31;10.00;;;7.17;;
36213;SDS011;37652;50.400;30.628;2022-12-05T02:54:37;14.23;;;9.10;;
36213;SDS011;37652;50.400;30.628;2022-12-05T02:56:42;11.60;;;7.47;;
36213;SDS011;37652;50.400;30.628;2022-12-05T02:58:50;13.13;;;8.23;;
36213;SDS011;37652;50.400;30.628;2022-12-05T03:00:55;14.33;;;8.60;;
36213;SDS011;37652;50.400;30.628;2022-12-05T03:02:57;11.37;;;7.80;;
36213;SDS011;37652;50.400;30.628;2022-12-05T03:05:14;13.53;;;8.57;;
36213;SDS011;37652;50.400;30.628;2022-12-05T03:07:39;14.27;;;8.23;;
36213;SDS011;37652;50.400;30.628;2022-12-05T03:09:49;16.60;;;9.10;;
36213;SDS011;37652;50.400;30.628;2022-12-05T03:12:01;13.10;;;7.85;;
36213;SDS011;37652;50.400;30.628;2022-12-05T03:14:13;13.90;;;8.50;;
36213;SDS011;37652;50.400;30.628;2022-12-05T03:18:37;9.77;;;7.30;;
36213;SDS011;37652;50.400;30.628;2022-12-05T03:20:48;9.53;;;6.47;;
36213;SDS011;37652;50.400;30.628;2022-12-05T03:23:16;11.13;;;6.13;;
36213;SDS011;37652;50.400;30.628;2022-12-05T03:25:33;12.83;;;7.20;;
36213;SDS011;37652;50.400;30.628;2022-12-05T03:28:02;8.93;;;6.30;;
36213;SDS011;37652;50.400;30.628;2022-12-05T03:30:20;13.30;;;5.93;;
36213;SDS011;37652;50.400;30.628;2022-12-05T03:34:47;13.77;;;6.27;;
36213;SDS011;37652;50.400;30.628;2022-12-05T03:36:58;6.50;;;4.73;;
36213;SDS011;37652;50.400;30.628;2022-12-05T03:39:10;10.60;;;6.13;;
36213;SDS011;37652;50.400;30.628;2022-12-05T03:43:30;10.97;;;6.57;;
36213;SDS011;37652;50.400;30.628;2022-12-05T03:45:56;10.40;;;7.03;;
36213;SDS011;37652;50.400;30.628;2022-12-05T03:50:46;11.27;;;6.07;;
36213;SDS011;37652;50.400;30.628;2022-12-05T03:52:50;11.17;;;6.43;;
36213;SDS011;37652;50.400;30.628;2022-12-05T03:55:01;10.63;;;7.13;;
36213;SDS011;37652;50.400;30.628;2022-12-05T03:57:14;11.17;;;8.03;;
36213;SDS011;37652;50.400;30.628;2022-12-05T04:01:33;11.73;;;7.70;;
36213;SDS011;37652;50.400;30.628;2022-12-05T04:03:39;12.67;;;6.33;;
36213;SDS011;37652;50.400;30.628;2022-12-05T04:05:45;9.23;;;5.93;;
36213;SDS011;37652;50.400;30.628;2022-12-05T04:08:02;12.00;;;5.77;;
36213;SDS011;37652;50.400;30.628;2022-12-05T04:10:09;12.60;;;6.37;;
36213;SDS011;37652;50.400;30.628;2022-12-05T04:12:19;12.17;;;5.77;;
36213;SDS011;37652;50.400;30.628;2022-12-05T04:14:42;10.47;;;5.33;;
36213;SDS011;37652;50.400;30.628;2022-12-05T04:21:15;12.17;;;7.23;;
36213;SDS011;37652;50.400;30.628;2022-12-05T04:23:37;11.20;;;6.78;;
36213;SDS011;37652;50.400;30.628;2022-12-05T04:33:14;11.03;;;7.07;;
36213;SDS011;37652;50.400;30.628;2022-12-05T04:35:40;11.50;;;8.38;;
36213;SDS011;37652;50.400;30.628;2022-12-05T04:37:46;14.23;;;7.57;;
36213;SDS011;37652;50.400;30.628;2022-12-05T04:39:52;14.83;;;8.30;;
36213;SDS011;37652;50.400;30.628;2022-12-05T04:42:01;10.30;;;7.57;;
36213;SDS011;37652;50.400;30.628;2022-12-05T04:44:06;12.63;;;8.30;;
36213;SDS011;37652;50.400;30.628;2022-12-05T04:46:10;13.30;;;7.50;;
36213;SDS011;37652;50.400;30.628;2022-12-05T04:48:14;13.80;;;8.00;;
36213;SDS011;37652;50.400;30.628;2022-12-05T04:50:16;14.77;;;7.43;;
36213;SDS011;37652;50.400;30.628;2022-12-05T04:52:18;9.67;;;7.10;;
36213;SDS011;37652;50.400;30.628;2022-12-05T04:54:28;9.83;;;7.37;;
36213;SDS011;37652;50.400;30.628;2022-12-05T04:56:32;11.20;;;6.88;;
36213;SDS011;37652;50.400;30.628;2022-12-05T04:58:36;13.50;;;7.43;;
36213;SDS011;37652;50.400;30.628;2022-12-05T07:29:29;19.53;;;11.03;;
36213;SDS011;37652;50.400;30.628;2022-12-05T07:31:30;18.38;;;10.18;;
36213;SDS011;37652;50.400;30.628;2022-12-05T07:33:32;21.77;;;11.60;;
36213;SDS011;37652;50.400;30.628;2022-12-05T07:35:33;22.50;;;10.45;;
36213;SDS011;37652;50.400;30.628;2022-12-05T07:37:34;20.20;;;12.13;;
36213;SDS011;37652;50.400;30.628;2022-12-05T07:39:35;14.57;;;9.77;;
36213;SDS011;37652;50.400;30.628;2022-12-05T07:41:36;22.10;;;10.77;;
36213;SDS011;37652;50.400;30.628;2022-12-05T07:43:37;19.88;;;10.30;;
36213;SDS011;37652;50.400;30.628;2022-12-05T07:45:37;23.45;;;12.05;;
36213;SDS011;37652;50.400;30.628;2022-12-05T07:47:39;20.90;;;10.52;;
36213;SDS011;37652;50.400;30.628;2022-12-05T07:49:40;17.15;;;10.27;;
36213;SDS011;37652;50.400;30.628;2022-12-05T07:51:40;20.55;;;10.45;;
36213;SDS011;37652;50.400;30.628;2022-12-05T07:53:41;23.52;;;10.15;;
36213;SDS011;37652;50.400;30.628;2022-12-05T07:55:43;21.67;;;11.20;;
36213;SDS011;37652;50.400;30.628;2022-12-05T07:57:43;21.85;;;11.05;;
36213;SDS011;37652;50.400;30.628;2022-12-05T07:59:44;19.15;;;10.43;;
36213;SDS011;37652;50.400;30.628;2022-12-05T08:01:45;18.08;;;10.57;;
36213;SDS011;37652;50.400;30.628;2022-12-05T08:06:55;19.20;;;10.00;;
36213;SDS011;37652;50.400;30.628;2022-12-05T08:09:14;21.67;;;10.20;;
36213;SDS011;37652;50.400;30.628;2022-12-05T08:11:16;17.47;;;10.27;;
36213;SDS011;37652;50.400;30.628;2022-12-05T08:13:19;17.57;;;10.00;;
36213;SDS011;37652;50.400;30.628;2022-12-05T08:15:20;17.95;;;9.43;;
36213;SDS011;37652;50.400;30.628;2022-12-05T08:17:20;17.70;;;9.00;;
36213;SDS011;37652;50.400;30.628;2022-12-05T08:19:21;15.85;;;8.60;;
36213;SDS011;37652;50.400;30.628;2022-12-05T08:21:22;14.43;;;8.90;;
36213;SDS011;37652;50.400;30.628;2022-12-05T08:23:24;21.23;;;8.87;;
36213;SDS011;37652;50.400;30.628;2022-12-05T08:25:27;17.00;;;10.13;;
36213;SDS011;37652;50.400;30.628;2022-12-05T08:27:28;20.25;;;10.90;;
36213;SDS011;37652;50.400;30.628;2022-12-05T08:29:28;27.05;;;12.80;;
36213;SDS011;37652;50.400;30.628;2022-12-05T08:31:30;20.58;;;10.50;;
36213;SDS011;37652;50.400;30.628;2022-12-05T08:33:32;16.93;;;9.90;;
36213;SDS011;37652;50.400;30.628;2022-12-05T08:35:35;14.25;;;8.70;;
36213;SDS011;37652;50.400;30.628;2022-12-05T08:37:36;22.00;;;8.50;;
36213;SDS011;37652;50.400;30.628;2022-12-05T08:39:37;17.75;;;9.00;;
36213;SDS011;37652;50.400;30.628;2022-12-05T08:41:37;15.70;;;8.52;;
36213;SDS011;37652;50.400;30.628;2022-12-05T08:43:38;17.70;;;9.05;;
36213;SDS011;37652;50.400;30.628;2022-12-05T08:47:40;17.87;;;9.93;;
36213;SDS011;37652;50.400;30.628;2022-12-05T08:49:41;19.90;;;11.65;;
36213;SDS011;37652;50.400;30.628;2022-12-05T08:51:42;17.85;;;9.95;;
36213;SDS011;37652;50.400;30.628;2022-12-05T08:53:43;21.02;;;9.63;;
36213;SDS011;37652;50.400;30.628;2022-12-05T08:55:44;21.13;;;10.43;;
36213;SDS011;37652;50.400;30.628;2022-12-05T08:57:44;19.30;;;10.60;;
36213;SDS011;37652;50.400;30.628;2022-12-05T08:59:45;21.42;;;9.93;;
36213;SDS011;37652;50.400;30.628;2022-12-05T09:01:47;19.67;;;9.68;;
36213;SDS011;37652;50.400;30.628;2022-12-05T09:03:49;15.23;;;8.53;;
36213;SDS011;37652;50.400;30.628;2022-12-05T09:05:50;20.35;;;9.98;;
36213;SDS011;37652;50.400;30.628;2022-12-05T09:07:50;19.48;;;9.73;;
36213;SDS011;37652;50.400;30.628;2022-12-05T09:09:51;16.15;;;9.35;;
36213;SDS011;37652;50.400;30.628;2022-12-05T09:11:52;16.00;;;10.23;;
36213;SDS011;37652;50.400;30.628;2022-12-05T09:13:54;18.52;;;10.00;;
36213;SDS011;37652;50.400;30.628;2022-12-05T09:15:55;19.03;;;10.23;;
36213;SDS011;37652;50.400;30.628;2022-12-05T09:17:56;18.15;;;9.00;;
36213;SDS011;37652;50.400;30.628;2022-12-05T09:19:57;17.35;;;9.27;;
36213;SDS011;37652;50.400;30.628;2022-12-05T09:21:58;15.43;;;9.48;;
36213;SDS011;37652;50.400;30.628;2022-12-05T09:23:59;18.02;;;10.20;;
36213;SDS011;37652;50.400;30.628;2022-12-05T09:26:00;17.83;;;9.15;;
36213;SDS011;37652;50.400;30.628;2022-12-05T09:28:01;14.20;;;8.63;;
36213;SDS011;37652;50.400;30.628;2022-12-05T09:30:02;18.33;;;9.90;;
36213;SDS011;37652;50.400;30.628;2022-12-05T09:32:04;14.40;;;8.67;;
36213;SDS011;37652;50.400;30.628;2022-12-05T09:34:05;15.23;;;9.65;;
36213;SDS011;37652;50.400;30.628;2022-12-05T09:36:13;18.42;;;9.13;;
36213;SDS011;37652;50.400;30.628;2022-12-05T09:38:15;19.10;;;9.30;;
36213;SDS011;37652;50.400;30.628;2022-12-05T09:40:17;18.40;;;10.40;;
36213;SDS011;37652;50.400;30.628;2022-12-05T09:46:53;18.93;;;10.73;;
36213;SDS011;37652;50.400;30.628;2022-12-05T09:48:59;20.13;;;9.87;;
36213;SDS011;37652;50.400;30.628;2022-12-05T09:51:02;16.37;;;10.17;;
36213;SDS011;37652;50.400;30.628;2022-12-05T09:55:14;20.77;;;11.53;;
36213;SDS011;37652;50.400;30.628;2022-12-05T09:57:19;21.10;;;12.47;;
36213;SDS011;37652;50.400;30.628;2022-12-05T09:59:31;19.13;;;11.37;;
36213;SDS011;37652;50.400;30.628;2022-12-05T10:06:08;24.48;;;13.40;;
36213;SDS011;37652;50.400;30.628;2022-12-05T10:08:28;28.87;;;12.63;;
36213;SDS011;37652;50.400;30.628;2022-12-05T10:10:33;23.73;;;12.27;;
36213;SDS011;37652;50.400;30.628;2022-12-05T10:15:52;24.10;;;13.47;;
36213;SDS011;37652;50.400;30.628;2022-12-05T10:17:37;22.13;;;12.33;;
36213;SDS011;37652;50.400;30.628;2022-12-05T10:19:43;27.63;;;13.03;;
36213;SDS011;37652;50.400;30.628;2022-12-05T10:23:50;18.52;;;9.93;;
36213;SDS011;37652;50.400;30.628;2022-12-05T10:25:58;21.43;;;11.10;;
36213;SDS011;37652;50.400;30.628;2022-12-05T10:28:05;22.03;;;12.40;;
36213;SDS011;37652;50.400;30.628;2022-12-05T10:30:16;22.25;;;12.10;;
36213;SDS011;37652;50.400;30.628;2022-12-05T10:32:21;20.43;;;12.10;;
36213;SDS011;37652;50.400;30.628;2022-12-05T16:26:23;16.40;;;9.53;;
36213;SDS011;37652;50.400;30.628;2022-12-05T16:28:24;15.15;;;9.57;;
36213;SDS011;37652;50.400;30.628;2022-12-05T16:30:26;16.27;;;8.60;;
36213;SDS011;37652;50.400;30.628;2022-12-05T16:32:27;15.40;;;8.77;;
36213;SDS011;37652;50.400;30.628;2022-12-05T16:34:28;19.00;;;9.50;;
36213;SDS011;37652;50.400;30.628;2022-12-05T16:36:32;14.13;;;7.80;;
36213;SDS011;37652;50.400;30.628;2022-12-05T16:38:33;13.63;;;7.90;;
36213;SDS011;37652;50.400;30.628;2022-12-05T16:40:35;13.40;;;7.27;;
36213;SDS011;37652;50.400;30.628;2022-12-05T16:42:41;17.57;;;8.43;;
36213;SDS011;37652;50.400;30.628;2022-12-05T16:46:44;18.37;;;8.33;;
36213;SDS011;37652;50.400;30.628;2022-12-05T16:48:46;12.98;;;8.43;;
36213;SDS011;37652;50.400;30.628;2022-12-05T16:53:16;12.67;;;7.70;;
36213;SDS011;37652;50.400;30.628;2022-12-05T16:55:22;16.50;;;8.27;;
36213;SDS011;37652;50.400;30.628;2022-12-05T16:57:22;19.15;;;9.40;;
36213;SDS011;37652;50.400;30.628;2022-12-05T16:59:31;18.67;;;8.02;;
36213;SDS011;37652;50.400;30.628;2022-12-05T17:01:33;25.00;;;8.60;;
36213;SDS011;37652;50.400;30.628;2022-12-05T17:03:34;18.38;;;10.00;;
36213;SDS011;37652;50.400;30.628;2022-12-05T17:05:35;14.77;;;8.80;;
36213;SDS011;37652;50.400;30.628;2022-12-05T17:07:35;16.85;;;10.85;;
36213;SDS011;37652;50.400;30.628;2022-12-05T17:09:36;17.05;;;8.82;;
36213;SDS011;37652;50.400;30.628;2022-12-05T17:11:38;14.93;;;8.00;;
36213;SDS011;37652;50.400;30.628;2022-12-05T17:13:41;15.83;;;8.37;;
36213;SDS011;37652;50.400;30.628;2022-12-05T17:15:44;19.83;;;8.87;;
36213;SDS011;37652;50.400;30.628;2022-12-05T17:17:45;17.17;;;8.65;;
36213;SDS011;37652;50.400;30.628;2022-12-05T17:19:46;18.08;;;8.60;;
36213;SDS011;37652;50.400;30.628;2022-12-05T17:21:47;17.80;;;9.43;;
36213;SDS011;37652;50.400;30.628;2022-12-05T17:23:48;16.90;;;9.23;;
36213;SDS011;37652;50.400;30.628;2022-12-05T17:25:52;17.17;;;9.88;;
36213;SDS011;37652;50.400;30.628;2022-12-05T17:27:54;18.77;;;10.90;;
36213;SDS011;37652;50.400;30.628;2022-12-05T17:29:54;19.98;;;10.05;;
36213;SDS011;37652;50.400;30.628;2022-12-05T17:31:55;25.90;;;12.38;;
36213;SDS011;37652;50.400;30.628;2022-12-05T17:33:56;20.17;;;11.18;;
36213;SDS011;37652;50.400;30.628;2022-12-05T17:35:57;20.95;;;9.30;;
36213;SDS011;37652;50.400;30.628;2022-12-05T17:37:58;20.70;;;10.05;;
36213;SDS011;37652;50.400;30.628;2022-12-05T17:39:58;23.58;;;10.60;;
36213;SDS011;37652;50.400;30.628;2022-12-05T17:41:59;21.10;;;11.30;;
36213;SDS011;37652;50.400;30.628;2022-12-05T17:44:00;20.55;;;9.93;;
36213;SDS011;37652;50.400;30.628;2022-12-05T17:46:01;21.23;;;11.82;;
36213;SDS011;37652;50.400;30.628;2022-12-05T17:48:02;19.85;;;9.75;;
36213;SDS011;37652;50.400;30.628;2022-12-05T17:50:03;17.88;;;10.52;;
36213;SDS011;37652;50.400;30.628;2022-12-05T17:52:05;19.47;;;9.50;;
36213;SDS011;37652;50.400;30.628;2022-12-05T17:54:06;26.02;;;10.52;;
36213;SDS011;37652;50.400;30.628;2022-12-05T17:56:07;16.40;;;9.77;;
36213;SDS011;37652;50.400;30.628;2022-12-05T17:58:08;19.98;;;10.35;;
36213;SDS011;37652;50.400;30.628;2022-12-05T18:02:11;18.95;;;9.05;;
36213;SDS011;37652;50.400;30.628;2022-12-05T18:04:12;19.95;;;11.18;;
36213;SDS011;37652;50.400;30.628;2022-12-05T18:06:13;27.55;;;11.27;;
36213;SDS011;37652;50.400;30.628;2022-12-05T18:08:14;16.55;;;9.88;;
36213;SDS011;37652;50.400;30.628;2022-12-05T18:10:16;17.77;;;10.00;;
36213;SDS011;37652;50.400;30.628;2022-12-05T18:12:20;18.33;;;9.77;;
36213;SDS011;37652;50.400;30.628;2022-12-05T18:14:21;17.75;;;10.25;;
36213;SDS011;37652;50.400;30.628;2022-12-05T18:16:22;21.57;;;10.07;;
36213;SDS011;37652;50.400;30.628;2022-12-05T18:18:23;22.67;;;10.00;;
36213;SDS011;37652;50.400;30.628;2022-12-05T18:20:26;16.93;;;10.13;;
36213;SDS011;37652;50.400;30.628;2022-12-05T18:22:27;23.23;;;11.00;;
36213;SDS011;37652;50.400;30.628;2022-12-05T18:24:27;18.73;;;9.13;;
36213;SDS011;37652;50.400;30.628;2022-12-05T18:26:28;18.98;;;9.85;;
36213;SDS011;37652;50.400;30.628;2022-12-05T18:28:29;16.67;;;9.18;;
36213;SDS011;37652;50.400;30.628;2022-12-05T18:30:30;20.80;;;9.43;;
36213;SDS011;37652;50.400;30.628;2022-12-05T18:32:31;26.58;;;11.07;;
36213;SDS011;37652;50.400;30.628;2022-12-05T18:34:32;16.33;;;9.68;;
36213;SDS011;37652;50.400;30.628;2022-12-05T18:36:33;21.42;;;11.00;;
36213;SDS011;37652;50.400;30.628;2022-12-05T18:38:34;17.73;;;9.60;;
36213;SDS011;37652;50.400;30.628;2022-12-05T18:42:36;12.93;;;7.67;;
36213;SDS011;37652;50.400;30.628;2022-12-05T18:44:36;19.92;;;10.85;;
36213;SDS011;37652;50.400;30.628;2022-12-05T18:46:37;21.65;;;11.73;;
36213;SDS011;37652;50.400;30.628;2022-12-05T18:48:38;25.52;;;11.88;;
36213;SDS011;37652;50.400;30.628;2022-12-05T18:50:39;19.03;;;10.50;;
36213;SDS011;37652;50.400;30.628;2022-12-05T18:52:40;21.67;;;11.27;;
36213;SDS011;37652;50.400;30.628;2022-12-05T18:54:41;25.73;;;10.30;;
36213;SDS011;37652;50.400;30.628;2022-12-05T18:56:41;25.20;;;11.82;;
36213;SDS011;37652;50.400;30.628;2022-12-05T18:58:50;23.90;;;10.93;;
36213;SDS011;37652;50.400;30.628;2022-12-05T19:00:52;25.43;;;11.87;;
36213;SDS011;37652;50.400;30.628;2022-12-05T19:02:53;19.75;;;11.13;;
36213;SDS011;37652;50.400;30.628;2022-12-05T19:04:54;21.83;;;10.13;;
36213;SDS011;37652;50.400;30.628;2022-12-05T19:06:58;19.75;;;10.57;;
36213;SDS011;37652;50.400;30.628;2022-12-05T19:09:03;20.60;;;10.57;;
36213;SDS011;37652;50.400;30.628;2022-12-05T19:11:06;27.43;;;12.13;;
36213;SDS011;37652;50.400;30.628;2022-12-05T19:13:07;17.58;;;9.88;;
36213;SDS011;37652;50.400;30.628;2022-12-05T19:15:10;23.10;;;10.40;;
36213;SDS011;37652;50.400;30.628;2022-12-05T19:17:11;20.42;;;10.18;;
36213;SDS011;37652;50.400;30.628;2022-12-05T19:19:12;22.48;;;9.85;;
36213;SDS011;37652;50.400;30.628;2022-12-05T19:21:13;20.73;;;9.77;;
36213;SDS011;37652;50.400;30.628;2022-12-05T19:23:14;19.95;;;9.77;;
36213;SDS011;37652;50.400;30.628;2022-12-05T19:25:14;22.33;;;10.35;;
36213;SDS011;37652;50.400;30.628;2022-12-05T19:27:15;17.88;;;10.70;;
36213;SDS011;37652;50.400;30.628;2022-12-05T19:29:16;19.17;;;9.63;;
36213;SDS011;37652;50.400;30.628;2022-12-05T19:31:18;18.00;;;10.30;;
36213;SDS011;37652;50.400;30.628;2022-12-05T19:33:20;17.73;;;10.13;;
36213;SDS011;37652;50.400;30.628;2022-12-05T19:35:20;23.33;;;11.30;;
36213;SDS011;37652;50.400;30.628;2022-12-05T19:37:21;25.08;;;10.68;;
36213;SDS011;37652;50.400;30.628;2022-12-05T19:39:22;20.13;;;9.55;;
36213;SDS011;37652;50.400;30.628;2022-12-05T19:41:27;16.90;;;9.47;;
36213;SDS011;37652;50.400;30.628;2022-12-05T19:43:29;21.90;;;9.57;;
36213;SDS011;37652;50.400;30.628;2022-12-05T19:45:32;24.67;;;9.87;;
36213;SDS011;37652;50.400;30.628;2022-12-05T19:47:32;17.48;;;9.32;;
36213;SDS011;37652;50.400;30.628;2022-12-05T19:49:33;20.90;;;9.60;;
36213;SDS011;37652;50.400;30.628;2022-12-05T19:51:34;15.25;;;9.05;;
36213;SDS011;37652;50.400;30.628;2022-12-05T19:53:35;18.75;;;10.30;;
36213;SDS011;37652;50.400;30.628;2022-12-05T19:55:37;21.70;;;9.80;;
36213;SDS011;37652;50.400;30.628;2022-12-05T19:57:38;21.00;;;10.18;;
36213;SDS011;37652;50.400;30.628;2022-12-05T19:59:39;19.63;;;9.45;;
36213;SDS011;37652;50.400;30.628;2022-12-05T20:01:40;16.92;;;8.63;;
36213;SDS011;37652;50.400;30.628;2022-12-05T20:03:41;15.13;;;9.50;;
36213;SDS011;37652;50.400;30.628;2022-12-05T20:05:43;16.13;;;8.73;;
36213;SDS011;37652;50.400;30.628;2022-12-05T20:07:54;16.42;;;8.57;;
36213;SDS011;37652;50.400;30.628;2022-12-05T20:09:55;14.65;;;9.60;;
36213;SDS011;37652;50.400;30.628;2022-12-05T20:11:55;15.20;;;8.90;;
36213;SDS011;37652;50.400;30.628;2022-12-05T20:13:57;13.77;;;8.52;;
36213;SDS011;37652;50.400;30.628;2022-12-05T20:16:03;15.60;;;8.83;;
36213;SDS011;37652;50.400;30.628;2022-12-05T20:18:05;19.00;;;9.60;;
36213;SDS011;37652;50.400;30.628;2022-12-05T20:20:06;20.20;;;8.38;;
36213;SDS011;37652;50.400;30.628;2022-12-05T20:22:07;17.23;;;10.05;;
36213;SDS011;37652;50.400;30.628;2022-12-05T20:24:08;21.77;;;10.27;;
36213;SDS011;37652;50.400;30.628;2022-12-05T20:28:14;24.73;;;11.30;;
36213;SDS011;37652;50.400;30.628;2022-12-05T20:30:16;18.27;;;10.00;;
36213;SDS011;37652;50.400;30.628;2022-12-05T20:32:16;17.67;;;9.70;;
36213;SDS011;37652;50.400;30.628;2022-12-05T20:34:17;18.38;;;9.45;;
36213;SDS011;37652;50.400;30.628;2022-12-05T20:36:20;18.60;;;10.07;;
36213;SDS011;37652;50.400;30.628;2022-12-05T20:38:22;16.67;;;9.30;;
36213;SDS011;37652;50.400;30.628;2022-12-05T20:40:23;16.25;;;8.77;;
36213;SDS011;37652;50.400;30.628;2022-12-05T20:42:24;24.60;;;10.05;;
36213;SDS011;37652;50.400;30.628;2022-12-05T20:44:24;16.70;;;10.02;;
36213;SDS011;37652;50.400;30.628;2022-12-05T20:46:26;20.88;;;9.98;;
36213;SDS011;37652;50.400;30.628;2022-12-05T20:48:27;16.83;;;9.70;;
36213;SDS011;37652;50.400;30.628;2022-12-05T20:50:28;17.80;;;10.07;;
36213;SDS011;37652;50.400;30.628;2022-12-05T20:52:29;20.17;;;10.15;;
36213;SDS011;37652;50.400;30.628;2022-12-05T20:54:30;20.42;;;10.95;;
36213;SDS011;37652;50.400;30.628;2022-12-05T20:56:31;18.55;;;9.80;;
36213;SDS011;37652;50.400;30.628;2022-12-05T20:58:33;27.03;;;10.67;;
36213;SDS011;37652;50.400;30.628;2022-12-05T21:00:34;18.83;;;10.07;;
36213;SDS011;37652;50.400;30.628;2022-12-05T21:02:35;21.20;;;10.25;;
36213;SDS011;37652;50.400;30.628;2022-12-05T21:04:36;20.38;;;10.88;;
36213;SDS011;37652;50.400;30.628;2022-12-05T21:06:40;25.23;;;10.20;;
36213;SDS011;37652;50.400;30.628;2022-12-05T21:08:42;21.33;;;10.57;;
36213;SDS011;37652;50.400;30.628;2022-12-05T21:10:44;24.75;;;11.20;;
36213;SDS011;37652;50.400;30.628;2022-12-05T21:12:46;19.57;;;11.20;;
36213;SDS011;37652;50.400;30.628;2022-12-05T21:14:46;23.83;;;10.98;;
36213;SDS011;37652;50.400;30.628;2022-12-05T21:16:47;18.80;;;11.35;;
36213;SDS011;37652;50.400;30.628;2022-12-05T21:18:48;21.27;;;9.70;;
36213;SDS011;37652;50.400;30.628;2022-12-05T21:20:59;26.37;;;10.43;;
36213;SDS011;37652;50.400;30.628;2022-12-05T21:23:01;24.33;;;11.40;;
36213;SDS011;37652;50.400;30.628;2022-12-05T21:25:02;21.95;;;10.90;;
36213;SDS011;37652;50.400;30.628;2022-12-05T21:27:03;23.33;;;10.63;;
36213;SDS011;37652;50.400;30.628;2022-12-05T21:29:05;25.90;;;10.60;;
36213;SDS011;37652;50.400;30.628;2022-12-05T21:31:14;22.97;;;10.97;;
36213;SDS011;37652;50.400;30.628;2022-12-05T21:33:16;28.87;;;11.10;;
36213;SDS011;37652;50.400;30.628;2022-12-05T21:35:17;30.05;;;12.07;;
36213;SDS011;37652;50.400;30.628;2022-12-05T21:37:17;20.80;;;11.23;;
36213;SDS011;37652;50.400;30.628;2022-12-05T21:39:18;22.13;;;11.40;;
36213;SDS011;37652;50.400;30.628;2022-12-05T21:41:19;22.55;;;10.68;;
36213;SDS011;37652;50.400;30.628;2022-12-05T21:43:20;23.58;;;11.52;;